Time;durP1;ratioP1;P1;durP2;ratioP2;P2;SDS_P1;SDS_P2;PMS_P1;PMS_P2;Temp;Humidity;BMP_temperature;BMP_pressure;BME280_temperature;BME280_humidity;BME280_pressure;Samples;Min_cycle;Max_cycle;Signal;HPM_P1;HPM_P2
2022/11/25 00:00:11;;;;;;;422.37;184.43;;;;;;;-142.25;100.00;58004.16;4988754;28;20058;-62
2022/11/25 00:02:43;;;;;;;421.83;189.37;;;;;;;-142.25;100.00;58004.16;4991190;28;20531;-61
2022/11/25 00:05:08;;;;;;;419.83;188.53;;;;;;;-142.25;100.00;58004.16;4994009;28;20408;-61
2022/11/25 00:07:35;;;;;;;421.90;189.83;;;;;;;-142.25;100.00;58004.16;4989765;28;20300;-61
2022/11/25 00:10:01;;;;;;;421.67;189.93;;;;;;;-142.25;100.00;58004.16;4991598;28;20030;-61
2022/11/25 00:12:27;;;;;;;423.33;195.80;;;;;;;-142.25;100.00;58004.16;4988803;28;20300;-61
2022/11/25 00:14:53;;;;;;;422.13;185.70;;;;;;;-142.25;100.00;58004.16;5007367;28;20284;-61
2022/11/25 00:17:18;;;;;;;422.97;192.97;;;;;;;-142.25;100.00;58004.16;4991642;28;20054;-61
2022/11/25 00:19:44;;;;;;;422.40;189.13;;;;;;;-142.25;100.00;58004.16;4985164;28;20177;-61
2022/11/25 00:22:10;;;;;;;421.90;191.10;;;;;;;-142.25;100.00;58004.16;4992724;28;20038;-62
2022/11/25 00:24:36;;;;;;;422.07;190.50;;;;;;;-142.25;100.00;58004.16;4992116;28;20289;-61
2022/11/25 00:27:03;;;;;;;421.00;189.70;;;;;;;-142.25;100.00;58004.16;5008664;28;20903;-63
2022/11/25 00:29:33;;;;;;;421.27;190.33;;;;;;;-142.25;100.00;58004.16;4990260;28;20050;-61
2022/11/25 00:31:59;;;;;;;420.80;188.40;;;;;;;-142.25;100.00;58004.16;4991479;28;20292;-61
2022/11/25 00:34:25;;;;;;;418.47;183.73;;;;;;;-142.25;100.00;58004.16;4992059;28;20285;-63
2022/11/25 00:36:52;;;;;;;418.53;185.67;;;;;;;-142.25;100.00;58004.16;4988698;28;20130;-62
2022/11/25 00:39:18;;;;;;;419.67;186.83;;;;;;;-142.25;100.00;58004.16;4991335;28;20971;-63
2022/11/25 00:44:36;;;;;;;416.77;180.85;;;;;;;-142.25;100.00;58004.16;5003965;28;20286;-60
2022/11/25 00:47:12;;;;;;;420.00;184.73;;;;;;;-142.25;100.00;58004.16;4992033;28;20069;-60
2022/11/25 00:49:43;;;;;;;418.07;181.10;;;;;;;-142.25;100.00;58004.16;4991578;28;20281;-62
2022/11/25 00:52:13;;;;;;;419.17;184.27;;;;;;;-142.25;100.00;58004.16;4991675;28;20289;-62
2022/11/25 00:54:38;;;;;;;421.47;190.63;;;;;;;-142.25;100.00;58004.16;5008738;28;20285;-63
2022/11/25 00:57:04;;;;;;;418.40;184.90;;;;;;;-142.25;100.00;58004.16;5002803;28;20358;-62
2022/11/25 00:59:30;;;;;;;420.67;185.83;;;;;;;-142.25;100.00;58004.16;4991232;28;20457;-61
2022/11/25 01:01:58;;;;;;;421.73;183.83;;;;;;;-142.25;100.00;58004.16;4990184;28;20100;-61
2022/11/25 01:04:25;;;;;;;418.33;187.07;;;;;;;-142.25;100.00;58004.16;4989735;28;20297;-61
2022/11/25 01:06:53;;;;;;;416.80;181.63;;;;;;;-142.25;100.00;58004.16;4991359;28;20497;-62
2022/11/25 01:09:18;;;;;;;421.63;192.07;;;;;;;-142.25;100.00;58004.16;4991408;28;20288;-62
2022/11/25 01:11:44;;;;;;;419.17;183.93;;;;;;;-142.25;100.00;58004.16;4990127;28;20395;-63
2022/11/25 01:14:10;;;;;;;418.10;179.03;;;;;;;-142.25;100.00;58004.16;4990864;28;20604;-61
2022/11/25 01:16:36;;;;;;;416.93;182.23;;;;;;;-142.25;100.00;58004.16;4990733;28;20046;-62
2022/11/25 01:19:03;;;;;;;416.70;186.37;;;;;;;-142.25;100.00;58004.16;4990152;28;20300;-61
2022/11/25 01:21:31;;;;;;;417.27;173.80;;;;;;;-142.25;100.00;58004.16;4999733;28;20056;-63
2022/11/25 01:24:01;;;;;;;414.63;177.27;;;;;;;-142.25;100.00;58004.16;4990900;28;20792;-62
2022/11/25 01:26:28;;;;;;;414.43;178.00;;;;;;;-142.25;100.00;58004.16;4985529;28;20846;-62
2022/11/25 01:28:59;;;;;;;417.37;178.17;;;;;;;-142.25;100.00;58004.16;4989249;28;20638;-63
2022/11/25 01:31:27;;;;;;;413.93;171.03;;;;;;;-142.25;100.00;58004.16;4988223;28;20289;-63
2022/11/25 01:33:58;;;;;;;414.27;172.13;;;;;;;-142.25;100.00;58004.16;4990744;28;20289;-61
2022/11/25 01:36:25;;;;;;;413.87;172.87;;;;;;;-142.25;100.00;58004.16;4990665;28;21035;-61
2022/11/25 01:38:53;;;;;;;412.93;171.37;;;;;;;-142.25;100.00;58004.16;4988376;28;20724;-61
2022/11/25 01:41:21;;;;;;;412.47;172.57;;;;;;;-142.25;100.00;58004.16;5005299;28;20316;-63
2022/11/25 01:44:04;;;;;;;414.07;173.47;;;;;;;-142.25;100.00;58004.16;4991132;28;20285;-62
2022/11/25 01:46:41;;;;;;;414.27;175.23;;;;;;;-142.25;100.00;58004.16;4989407;28;20296;-61
2022/11/25 01:49:13;;;;;;;414.97;174.23;;;;;;;-142.25;100.00;58004.16;4988322;28;20296;-61
2022/11/25 01:51:54;;;;;;;419.33;182.03;;;;;;;-142.25;100.00;58004.16;4989276;28;20284;-61
2022/11/25 01:54:25;;;;;;;418.37;177.93;;;;;;;-142.25;100.00;58004.16;4990602;28;21256;-63
2022/11/25 01:57:13;;;;;;;415.90;179.27;;;;;;;-142.25;100.00;58004.16;5004399;28;20301;-61
2022/11/25 01:59:44;;;;;;;416.57;178.73;;;;;;;-142.25;100.00;58004.16;4987991;28;20787;-64
2022/11/25 02:02:11;;;;;;;420.10;181.80;;;;;;;-142.25;100.00;58004.16;4989600;28;20289;-60
2022/11/25 02:04:39;;;;;;;420.83;182.83;;;;;;;-142.25;100.00;58004.16;4990050;28;20285;-61
2022/11/25 02:07:11;;;;;;;419.30;185.40;;;;;;;-142.25;100.00;58004.16;4990588;28;20332;-61
2022/11/25 02:09:41;;;;;;;427.10;191.67;;;;;;;-142.25;100.00;58004.16;4988181;28;20289;-61
2022/11/25 02:12:07;;;;;;;417.80;182.30;;;;;;;-142.25;100.00;58004.16;5004269;28;20321;-62
2022/11/25 02:14:33;;;;;;;417.50;183.80;;;;;;;-142.25;100.00;58004.16;4987634;28;20289;-63
2022/11/25 02:17:01;;;;;;;419.33;184.10;;;;;;;-142.25;100.00;58004.16;4990723;28;20292;-61
2022/11/25 02:20:02;;;;;;;419.73;187.53;;;;;;;-142.25;100.00;58004.16;4990243;28;20042;-61
2022/11/25 02:23:00;;;;;;;419.90;183.50;;;;;;;-142.25;100.00;58004.16;5006491;28;20284;-62
2022/11/25 02:25:30;;;;;;;417.83;184.60;;;;;;;-142.25;100.00;58004.16;4986916;28;20345;-61
2022/11/25 02:28:06;;;;;;;420.07;183.97;;;;;;;-142.25;100.00;58004.16;4990250;28;20320;-61
2022/11/25 02:30:33;;;;;;;421.63;186.20;;;;;;;-142.25;100.00;58004.16;5004890;28;20780;-61
2022/11/25 02:32:59;;;;;;;422.40;181.90;;;;;;;-142.25;100.00;58004.16;4989085;28;20288;-63
2022/11/25 02:35:26;;;;;;;421.93;185.87;;;;;;;-142.25;100.00;58004.16;4992903;28;20366;-61
2022/11/25 02:37:55;;;;;;;424.70;187.40;;;;;;;-142.25;100.00;58004.16;4988250;28;20297;-61
2022/11/25 02:40:22;;;;;;;423.30;192.97;;;;;;;-142.25;100.00;58004.16;4997233;28;20049;-60
2022/11/25 02:42:49;;;;;;;418.20;176.87;;;;;;;-142.25;100.00;58004.16;4977806;28;20292;-62
2022/11/25 02:45:20;;;;;;;416.17;178.97;;;;;;;-142.25;100.00;58004.16;4958563;28;20854;-62
2022/11/25 02:47:46;;;;;;;416.53;179.07;;;;;;;-142.25;100.00;58004.16;5006583;28;20827;-63
2022/11/25 02:50:12;;;;;;;418.10;180.63;;;;;;;-142.25;100.00;58004.16;4989909;28;20296;-61
2022/11/25 02:52:38;;;;;;;417.80;185.13;;;;;;;-142.25;100.00;58004.16;5001295;28;20522;-61
2022/11/25 02:55:05;;;;;;;417.07;180.93;;;;;;;-142.25;100.00;58004.16;4997591;28;20359;-61
2022/11/25 02:57:30;;;;;;;414.80;173.40;;;;;;;-142.25;100.00;58004.16;4990091;28;20333;-61
2022/11/25 02:59:56;;;;;;;411.83;166.60;;;;;;;-142.25;100.00;58004.16;4989304;28;20289;-61
2022/11/25 03:02:22;;;;;;;412.73;168.20;;;;;;;-142.25;100.00;58004.16;4989538;28;20124;-61
2022/11/25 03:04:48;;;;;;;414.03;170.10;;;;;;;-142.25;100.00;58004.16;4987681;28;20470;-62
2022/11/25 03:07:13;;;;;;;411.47;163.47;;;;;;;-142.25;100.00;58004.16;4988791;28;20054;-61
2022/11/25 03:09:39;;;;;;;414.07;169.37;;;;;;;-142.25;100.00;58004.16;5001494;28;20086;-62
2022/11/25 03:12:20;;;;;;;414.33;170.00;;;;;;;-142.25;100.00;58004.16;4980461;28;20046;-62
2022/11/25 03:14:46;;;;;;;413.60;168.30;;;;;;;-142.25;100.00;58004.16;4983665;28;20128;-62
2022/11/25 03:17:13;;;;;;;410.67;160.83;;;;;;;-142.25;100.00;58004.16;4987677;28;21038;-61
2022/11/25 03:19:39;;;;;;;413.67;169.23;;;;;;;-142.25;100.00;58004.16;4986271;28;20376;-61
2022/11/25 03:22:05;;;;;;;411.00;158.60;;;;;;;-142.25;100.00;58004.16;4986697;28;20302;-62
2022/11/25 03:24:32;;;;;;;410.10;157.50;;;;;;;-142.25;100.00;58004.16;4988402;28;20490;-62
2022/11/25 03:26:57;;;;;;;407.10;156.67;;;;;;;-142.25;100.00;58004.16;5001533;28;20038;-62
2022/11/25 03:29:23;;;;;;;410.20;157.30;;;;;;;-142.25;100.00;58004.16;4984340;28;20783;-61
2022/11/25 03:31:49;;;;;;;411.67;154.83;;;;;;;-142.25;100.00;58004.16;5003760;28;20049;-62
2022/11/25 03:34:15;;;;;;;412.10;161.57;;;;;;;-142.25;100.00;58004.16;4986861;28;20290;-62
2022/11/25 03:36:41;;;;;;;412.90;161.53;;;;;;;-142.25;100.00;58004.16;4981200;28;20398;-61
2022/11/25 03:39:07;;;;;;;419.87;168.03;;;;;;;-142.25;100.00;58004.16;5003417;28;20042;-61
2022/11/25 03:41:35;;;;;;;413.63;158.67;;;;;;;-142.25;100.00;58004.16;5002326;28;20431;-61
2022/11/25 03:44:01;;;;;;;410.43;153.27;;;;;;;-142.25;100.00;58004.16;4989305;28;21255;-62
2022/11/25 03:46:27;;;;;;;408.80;151.50;;;;;;;-142.25;100.00;58004.16;5009130;28;20049;-62
2022/11/25 03:48:54;;;;;;;406.83;147.30;;;;;;;-142.25;100.00;58004.16;4996328;28;20281;-62
2022/11/25 03:51:20;;;;;;;410.80;151.13;;;;;;;-142.25;100.00;58004.16;4991534;28;20347;-62
2022/11/25 03:53:47;;;;;;;407.37;152.07;;;;;;;-142.25;100.00;58004.16;4988066;28;20305;-62
2022/11/25 03:56:13;;;;;;;409.63;153.97;;;;;;;-142.25;100.00;58004.16;4985795;28;20303;-62
2022/11/25 03:58:39;;;;;;;409.33;148.73;;;;;;;-142.25;100.00;58004.16;5005433;28;20293;-62
2022/11/25 04:01:08;;;;;;;406.60;140.73;;;;;;;-142.25;100.00;58004.16;4987973;28;20069;-62
2022/11/25 04:03:34;;;;;;;406.67;141.00;;;;;;;-142.25;100.00;58004.16;4990586;28;20273;-61
2022/11/25 04:05:59;;;;;;;406.30;141.13;;;;;;;-142.25;100.00;58004.16;4992523;28;20289;-62
2022/11/25 04:08:27;;;;;;;406.97;148.00;;;;;;;-142.25;100.00;58004.16;5008068;28;20042;-62
2022/11/25 04:10:53;;;;;;;407.80;142.97;;;;;;;-142.25;100.00;58004.16;4985886;28;20282;-62
2022/11/25 04:13:23;;;;;;;404.73;136.57;;;;;;;-142.25;100.00;58004.16;5005473;28;20293;-62
2022/11/25 04:15:50;;;;;;;402.43;135.17;;;;;;;-142.25;100.00;58004.16;5003982;28;20301;-62
2022/11/25 04:18:18;;;;;;;402.23;137.23;;;;;;;-142.25;100.00;58004.16;4992045;28;20281;-60
2022/11/25 04:20:46;;;;;;;405.13;135.20;;;;;;;-142.25;100.00;58004.16;5007524;28;20363;-62
2022/11/25 04:23:12;;;;;;;404.23;134.23;;;;;;;-142.25;100.00;58004.16;5008856;28;20285;-62
2022/11/25 04:25:44;;;;;;;403.27;137.60;;;;;;;-142.25;100.00;58004.16;4990008;28;20048;-60
2022/11/25 04:28:21;;;;;;;403.57;137.40;;;;;;;-142.25;100.00;58004.16;4980012;28;20373;-60
2022/11/25 04:30:47;;;;;;;405.60;138.30;;;;;;;-142.25;100.00;58004.16;4987720;28;20301;-61
2022/11/25 04:33:13;;;;;;;402.73;136.17;;;;;;;-142.25;100.00;58004.16;5002361;28;20042;-62
2022/11/25 04:35:41;;;;;;;399.33;133.73;;;;;;;-142.25;100.00;58004.16;5006671;28;20379;-62
2022/11/25 04:38:07;;;;;;;402.67;133.10;;;;;;;-142.25;100.00;58004.16;4990583;28;20286;-63
2022/11/25 04:40:34;;;;;;;401.63;136.70;;;;;;;-142.25;100.00;58004.16;4988957;28;20345;-60
2022/11/25 04:43:11;;;;;;;403.57;139.57;;;;;;;-142.25;100.00;58004.16;4985821;28;20327;-61
2022/11/25 04:45:43;;;;;;;406.50;137.80;;;;;;;-142.25;100.00;58004.16;4990326;28;20308;-60
2022/11/25 04:48:12;;;;;;;403.57;137.80;;;;;;;-142.25;100.00;58004.16;4987185;28;20389;-60
2022/11/25 04:50:38;;;;;;;405.23;135.47;;;;;;;-142.25;100.00;58004.16;5002802;28;20300;-61
2022/11/25 04:53:09;;;;;;;401.57;128.20;;;;;;;-142.25;100.00;58004.16;4987026;28;20389;-61
2022/11/25 04:55:35;;;;;;;400.23;131.57;;;;;;;-142.25;100.00;58004.16;4990758;28;20286;-61
2022/11/25 04:58:12;;;;;;;403.80;135.57;;;;;;;-142.25;100.00;58004.16;4989516;28;20137;-62
2022/11/25 05:00:40;;;;;;;399.20;128.30;;;;;;;-142.25;100.00;58004.16;4991772;28;20761;-62
2022/11/25 05:03:07;;;;;;;398.93;129.00;;;;;;;-142.25;100.00;58004.16;4972273;28;20285;-60
2022/11/25 05:05:37;;;;;;;398.73;129.80;;;;;;;-142.25;100.00;58004.16;4991707;28;20309;-61
2022/11/25 05:08:03;;;;;;;402.63;131.43;;;;;;;-142.25;100.00;58004.16;5007646;28;20289;-62
2022/11/25 05:10:29;;;;;;;409.27;135.90;;;;;;;-142.25;100.00;58004.16;5004951;28;20335;-61
2022/11/25 05:12:55;;;;;;;406.07;135.57;;;;;;;-142.25;100.00;58004.16;4984819;28;20100;-61
2022/11/25 05:15:21;;;;;;;402.87;131.63;;;;;;;-142.25;100.00;58004.16;4988697;28;20289;-62
2022/11/25 05:17:46;;;;;;;403.43;128.47;;;;;;;-142.25;100.00;58004.16;4990335;28;20386;-64
2022/11/25 05:20:14;;;;;;;399.60;127.07;;;;;;;-142.25;100.00;58004.16;5004255;28;20084;-62
2022/11/25 05:22:40;;;;;;;401.70;128.50;;;;;;;-142.25;100.00;58004.16;4991645;28;20393;-62
2022/11/25 05:25:11;;;;;;;400.77;127.33;;;;;;;-142.25;100.00;58004.16;5006019;28;20124;-61
2022/11/25 05:27:46;;;;;;;;;;;;;;;-142.25;100.00;58004.16;4990573;28;20300;-61
2022/11/25 05:30:13;;;;;;;397.67;123.63;;;;;;;-142.25;100.00;58004.16;4988645;28;21174;-61
2022/11/25 05:32:39;;;;;;;396.10;123.63;;;;;;;-142.25;100.00;58004.16;4987491;28;20285;-61
2022/11/25 05:35:08;;;;;;;402.53;130.87;;;;;;;-142.25;100.00;58004.16;4986327;28;20751;-61
2022/11/25 05:37:34;;;;;;;401.60;133.37;;;;;;;-142.25;100.00;58004.16;4982363;28;20288;-61
2022/11/25 05:40:04;;;;;;;399.37;122.10;;;;;;;-142.25;100.00;58004.16;5007232;28;20054;-62
2022/11/25 05:42:50;;;;;;;395.43;123.53;;;;;;;-142.25;100.00;58004.16;5003902;28;20286;-62
2022/11/25 05:45:18;;;;;;;398.60;123.50;;;;;;;-142.25;100.00;58004.16;4991381;28;20399;-63
2022/11/25 05:47:43;;;;;;;398.33;124.27;;;;;;;-142.25;100.00;58004.16;4986001;28;20384;-62
2022/11/25 05:50:12;;;;;;;399.43;123.03;;;;;;;-142.25;100.00;58004.16;5007662;28;20051;-62
2022/11/25 05:52:38;;;;;;;396.70;125.40;;;;;;;-142.25;100.00;58004.16;4992172;28;20641;-62
2022/11/25 05:55:04;;;;;;;397.50;125.57;;;;;;;-142.25;100.00;58004.16;4989599;28;20144;-62
2022/11/25 05:57:30;;;;;;;399.63;126.63;;;;;;;-142.25;100.00;58004.16;4990679;28;20478;-62
2022/11/25 06:00:03;;;;;;;397.10;123.27;;;;;;;-142.25;100.00;58004.16;5006890;28;20294;-62
2022/11/25 06:02:50;;;;;;;398.97;126.83;;;;;;;-142.25;100.00;58004.16;4993380;28;20375;-62
2022/11/25 06:05:16;;;;;;;398.10;124.23;;;;;;;-142.25;100.00;58004.16;4986376;28;20307;-62
2022/11/25 06:07:42;;;;;;;396.20;121.40;;;;;;;-142.25;100.00;58004.16;4986503;28;20648;-60
2022/11/25 06:10:08;;;;;;;398.03;123.33;;;;;;;-142.25;100.00;58004.16;4989259;28;20112;-61
2022/11/25 06:12:36;;;;;;;400.07;126.57;;;;;;;-142.25;100.00;58004.16;4984373;28;20276;-61
2022/11/25 06:15:03;;;;;;;400.33;127.30;;;;;;;-142.25;100.00;58004.16;5000192;28;20851;-64
2022/11/25 06:17:29;;;;;;;400.37;131.70;;;;;;;-142.25;100.00;58004.16;5006892;28;20041;-61
2022/11/25 06:20:10;;;;;;;398.53;125.90;;;;;;;-142.25;100.00;58004.16;4988731;28;20285;-62
2022/11/25 06:22:36;;;;;;;397.73;125.47;;;;;;;-142.25;100.00;58004.16;4984596;28;20288;-61
2022/11/25 06:25:03;;;;;;;394.23;119.47;;;;;;;-142.25;100.00;58004.16;5003202;28;20561;-61
2022/11/25 06:27:29;;;;;;;396.90;127.10;;;;;;;-142.25;100.00;58004.16;4987380;28;20058;-61
2022/11/25 06:29:54;;;;;;;401.03;121.37;;;;;;;-142.25;100.00;58004.16;5005821;28;20325;-61
2022/11/25 06:32:20;;;;;;;401.00;121.40;;;;;;;-142.25;100.00;58004.16;4997778;28;20379;-61
2022/11/25 06:34:58;;;;;;;398.37;125.07;;;;;;;-142.25;100.00;58004.16;4990105;28;20125;-62
2022/11/25 06:37:33;;;;;;;400.70;122.07;;;;;;;-142.25;100.00;58004.16;5006816;28;20316;-62
2022/11/25 06:39:58;;;;;;;401.00;121.23;;;;;;;-142.25;100.00;58004.16;4988702;28;20097;-63
2022/11/25 06:42:24;;;;;;;399.90;127.37;;;;;;;-142.25;100.00;58004.16;4986473;28;20554;-63
2022/11/25 06:44:49;;;;;;;401.03;126.60;;;;;;;-142.25;100.00;58004.16;4983830;28;20643;-62
2022/11/25 06:47:15;;;;;;;398.77;116.33;;;;;;;-142.25;100.00;58004.16;4989598;28;20453;-64
2022/11/25 06:49:41;;;;;;;402.23;123.40;;;;;;;-142.25;100.00;58004.16;4989421;28;20335;-62
2022/11/25 06:52:07;;;;;;;407.90;121.10;;;;;;;-142.25;100.00;58004.16;4987482;28;20052;-63
2022/11/25 06:54:33;;;;;;;407.40;124.27;;;;;;;-142.25;100.00;58004.16;4987682;28;20068;-62
2022/11/25 06:56:59;;;;;;;409.43;123.60;;;;;;;-142.25;100.00;58004.16;4988902;28;20062;-62
2022/11/25 06:59:25;;;;;;;401.23;121.37;;;;;;;-142.25;100.00;58004.16;4990081;28;20293;-62
2022/11/25 07:01:52;;;;;;;408.13;126.53;;;;;;;-142.25;100.00;58004.16;4988271;28;20625;-61
2022/11/25 07:04:17;;;;;;;421.93;133.13;;;;;;;-142.25;100.00;58004.16;4987657;28;20300;-61
2022/11/25 07:06:46;;;;;;;425.03;135.07;;;;;;;-142.25;100.00;58004.16;4988104;28;20115;-60
2022/11/25 07:09:12;;;;;;;416.73;127.47;;;;;;;-142.25;100.00;58004.16;5008880;28;20121;-61
2022/11/25 07:11:39;;;;;;;414.67;128.70;;;;;;;-142.25;100.00;58004.16;4996195;28;20383;-61
2022/11/25 07:14:09;;;;;;;411.17;129.93;;;;;;;-142.25;100.00;58004.16;4996553;28;20501;-61
2022/11/25 07:16:37;;;;;;;410.20;130.53;;;;;;;-142.25;100.00;58004.16;4996071;28;20297;-60
2022/11/25 07:19:03;;;;;;;410.47;138.87;;;;;;;-142.25;100.00;58004.16;4988527;28;20312;-60
2022/11/25 07:21:30;;;;;;;406.60;126.13;;;;;;;-142.25;100.00;58004.16;4991760;28;20285;-61
2022/11/25 07:23:58;;;;;;;404.47;126.37;;;;;;;-142.25;100.00;58004.16;4995254;28;20799;-62
2022/11/25 07:26:27;;;;;;;403.07;131.17;;;;;;;-142.25;100.00;58004.16;4991050;28;20297;-63
2022/11/25 07:28:54;;;;;;;405.37;135.30;;;;;;;-142.25;100.00;58004.16;4990914;28;20296;-61
2022/11/25 07:31:28;;;;;;;402.30;133.40;;;;;;;-142.25;100.00;58004.16;4992446;28;20895;-62
2022/11/25 07:33:56;;;;;;;401.90;130.33;;;;;;;-142.25;100.00;58004.16;4993666;28;20802;-63
2022/11/25 07:36:23;;;;;;;406.93;138.80;;;;;;;-142.25;100.00;58004.16;4995587;28;20317;-62
2022/11/25 07:38:49;;;;;;;410.20;137.40;;;;;;;-142.25;100.00;58004.16;4997352;28;20606;-62
2022/11/25 07:41:21;;;;;;;409.97;139.67;;;;;;;-142.25;100.00;58004.16;4997281;28;20289;-58
2022/11/25 07:43:49;;;;;;;418.00;148.67;;;;;;;-142.25;100.00;58004.16;4997972;28;20069;-61
2022/11/25 07:46:26;;;;;;;418.13;152.43;;;;;;;-142.25;100.00;58004.16;5002475;28;20333;-62
2022/11/25 07:48:57;;;;;;;414.87;148.90;;;;;;;-142.25;100.00;58004.16;4991647;28;20411;-61
2022/11/25 07:51:29;;;;;;;414.30;145.60;;;;;;;-142.25;100.00;58004.16;4992467;28;20296;-61
2022/11/25 07:53:57;;;;;;;414.63;149.83;;;;;;;-142.25;100.00;58004.16;4991714;28;20273;-61
2022/11/25 07:56:23;;;;;;;410.80;147.30;;;;;;;-142.25;100.00;58004.16;4989001;28;20510;-61
2022/11/25 07:58:49;;;;;;;416.17;157.20;;;;;;;-142.25;100.00;58004.16;4992636;28;20281;-61
2022/11/25 08:01:17;;;;;;;414.27;158.17;;;;;;;-142.25;100.00;58004.16;4988458;28;20289;-62
2022/11/25 08:03:44;;;;;;;412.53;153.50;;;;;;;-142.25;100.00;58004.16;4993731;28;20045;-59
2022/11/25 08:06:13;;;;;;;411.27;150.70;;;;;;;-142.25;100.00;58004.16;4995445;28;20388;-62
2022/11/25 08:08:40;;;;;;;414.10;155.43;;;;;;;-142.25;100.00;58004.16;4995654;28;20921;-62
2022/11/25 08:11:15;;;;;;;415.30;155.97;;;;;;;-142.25;100.00;58004.16;4995479;28;20852;-62
2022/11/25 08:13:41;;;;;;;419.77;168.75;;;;;;;-142.25;100.00;58004.16;4993835;28;20327;-62
2022/11/25 08:16:07;;;;;;;419.23;169.70;;;;;;;-142.25;100.00;58004.16;4990426;28;20038;-62
2022/11/25 08:18:33;;;;;;;421.87;172.90;;;;;;;-142.25;100.00;58004.16;4991900;28;20042;-61
2022/11/25 08:21:04;;;;;;;422.80;171.17;;;;;;;-142.25;100.00;58004.16;4993194;28;20261;-62
2022/11/25 08:23:32;;;;;;;418.53;175.67;;;;;;;-142.25;100.00;58004.16;4991623;28;20733;-62
2022/11/25 08:26:05;;;;;;;421.53;174.10;;;;;;;-142.25;100.00;58004.16;4992076;28;20296;-61
2022/11/25 08:28:30;;;;;;;427.37;180.83;;;;;;;-142.25;100.00;58004.16;4991591;28;20297;-63
2022/11/25 08:31:05;;;;;;;428.30;192.03;;;;;;;-142.25;100.00;58004.16;4985739;28;20324;-62
2022/11/25 08:33:30;;;;;;;429.02;189.80;;;;;;;-142.25;100.00;58004.16;4985696;28;20042;-62
2022/11/25 08:35:56;;;;;;;424.43;182.57;;;;;;;-142.25;100.00;58004.16;4987130;28;20053;-63
2022/11/25 08:38:22;;;;;;;431.30;204.43;;;;;;;-142.25;100.00;58004.16;4987225;28;20074;-63
2022/11/25 08:40:48;;;;;;;426.17;188.93;;;;;;;-142.25;100.00;58004.16;4987608;28;20038;-64
2022/11/25 08:43:14;;;;;;;427.13;201.67;;;;;;;-142.25;100.00;58004.16;4985143;28;20289;-64
2022/11/25 08:45:40;;;;;;;427.43;198.87;;;;;;;-142.25;100.00;58004.16;4969326;28;20511;-63
2022/11/25 08:48:06;;;;;;;427.50;192.33;;;;;;;-142.25;100.00;58004.16;4987749;28;20050;-64
2022/11/25 08:50:32;;;;;;;430.43;197.30;;;;;;;-142.25;100.00;58004.16;4992537;28;20285;-62
2022/11/25 08:52:59;;;;;;;432.93;204.93;;;;;;;-142.25;100.00;58004.16;4992728;28;20086;-64
2022/11/25 08:55:26;;;;;;;429.33;199.30;;;;;;;-142.25;100.00;58004.16;4991837;28;20587;-63
2022/11/25 08:57:53;;;;;;;434.03;213.63;;;;;;;-142.25;100.00;58004.16;4987838;28;20328;-64
2022/11/25 09:00:19;;;;;;;437.03;223.23;;;;;;;-142.25;100.00;58004.16;4985397;28;20386;-64
2022/11/25 09:02:45;;;;;;;435.17;223.97;;;;;;;-142.25;100.00;58004.16;4982996;28;20784;-64
2022/11/25 09:05:13;;;;;;;432.00;216.23;;;;;;;-142.25;100.00;58004.16;4989042;28;20053;-65
2022/11/25 09:07:39;;;;;;;439.00;225.90;;;;;;;-142.25;100.00;58004.16;4991498;28;20068;-64
2022/11/25 09:10:07;;;;;;;434.27;226.03;;;;;;;-142.25;100.00;58004.16;4988959;28;20528;-64
2022/11/25 09:12:33;;;;;;;438.97;237.57;;;;;;;-142.25;100.00;58004.16;4990778;28;20042;-64
2022/11/25 09:14:59;;;;;;;440.43;236.10;;;;;;;-142.25;100.00;58004.16;4999345;28;20056;-65
2022/11/25 09:17:26;;;;;;;436.63;231.57;;;;;;;-142.25;100.00;58004.16;5003203;28;20122;-63
2022/11/25 09:19:52;;;;;;;438.03;240.83;;;;;;;-142.25;100.00;58004.16;4991864;28;20064;-63
2022/11/25 09:22:17;;;;;;;441.03;236.23;;;;;;;-142.25;100.00;58004.16;4991511;28;20038;-63
2022/11/25 09:24:44;;;;;;;440.63;246.57;;;;;;;-142.25;100.00;58004.16;4992268;28;20081;-62
2022/11/25 09:27:09;;;;;;;442.57;252.17;;;;;;;-142.25;100.00;58004.16;5006306;28;20046;-65
2022/11/25 09:29:35;;;;;;;440.67;245.80;;;;;;;-142.25;100.00;58004.16;4991508;28;20042;-63
2022/11/25 09:32:01;;;;;;;441.07;243.47;;;;;;;-142.25;100.00;58004.16;4991090;28;20429;-63
2022/11/25 09:34:27;;;;;;;438.37;250.83;;;;;;;-142.25;100.00;58004.16;4989870;28;20038;-62
2022/11/25 09:36:52;;;;;;;443.37;258.33;;;;;;;-142.25;100.00;58004.16;4987337;28;20143;-65
2022/11/25 09:39:18;;;;;;;441.83;251.73;;;;;;;-142.25;100.00;58004.16;4985281;28;20042;-61
2022/11/25 09:48:00;;;;;;;446.20;261.80;;;;;;;-142.25;100.00;58004.16;4991979;28;20045;-64
2022/11/25 09:50:44;;;;;;;446.83;268.43;;;;;;;-142.25;100.00;58004.16;4988787;28;20612;-63
2022/11/25 09:53:37;;;;;;;446.27;272.80;;;;;;;-142.25;100.00;58004.16;4984894;28;20049;-66
2022/11/25 09:56:13;;;;;;;447.47;270.13;;;;;;;-142.25;100.00;58004.16;4988960;28;20050;-66
2022/11/25 09:58:47;;;;;;;447.90;279.37;;;;;;;-142.25;100.00;58004.16;4985875;28;20498;-63
2022/11/25 10:01:23;;;;;;;443.37;267.37;;;;;;;-142.25;100.00;58004.16;4987414;28;20361;-60
2022/11/25 10:04:16;;;;;;;444.77;274.63;;;;;;;-142.25;100.00;58004.16;4987138;28;20275;-62
2022/11/25 10:06:56;;;;;;;442.57;267.10;;;;;;;-142.25;100.00;58004.16;4971216;28;20984;-61
2022/11/25 10:09:25;;;;;;;446.60;280.33;;;;;;;-142.25;100.00;58004.16;4990326;28;20061;-64
2022/11/25 10:12:00;;;;;;;447.97;289.47;;;;;;;-142.25;100.00;58004.16;4987338;28;20038;-62
2022/11/25 10:14:36;;;;;;;445.55;286.05;;;;;;;-142.25;100.00;58004.16;4984152;28;20542;-61
2022/11/25 10:17:32;;;;;;;443.37;279.63;;;;;;;-142.25;100.00;58004.16;4986205;28;20527;-63
2022/11/25 10:20:03;;;;;;;447.20;279.70;;;;;;;-142.25;100.00;58004.16;4982744;28;20549;-65
2022/11/25 10:22:33;;;;;;;450.93;302.63;;;;;;;-142.25;100.00;58004.16;4985062;28;20049;-64
2022/11/25 10:25:21;;;;;;;453.27;301.53;;;;;;;-142.25;100.00;58004.16;4987682;28;20321;-69
2022/11/25 10:28:05;;;;;;;450.97;294.93;;;;;;;-142.25;100.00;58004.16;4983878;28;20054;-64
2022/11/25 10:30:31;;;;;;;449.83;300.20;;;;;;;-142.25;100.00;58004.16;4988730;28;20224;-65
2022/11/25 10:33:05;;;;;;;448.93;294.77;;;;;;;-142.25;100.00;58004.16;4983064;28;20574;-65
2022/11/25 10:35:48;;;;;;;450.20;292.83;;;;;;;-142.25;100.00;58004.16;4988730;28;20567;-64
2022/11/25 10:38:41;;;;;;;458.20;327.50;;;;;;;-142.25;100.00;58004.16;4983338;28;20053;-61
2022/11/25 10:41:16;;;;;;;455.93;325.30;;;;;;;-142.25;100.00;58004.16;4986154;28;20060;-64
2022/11/25 10:43:44;;;;;;;458.37;327.87;;;;;;;-142.25;100.00;58004.16;4980350;28;20046;-62
2022/11/25 10:46:13;;;;;;;459.43;333.33;;;;;;;-142.25;100.00;58004.16;4985071;28;20041;-63
2022/11/25 10:48:57;;;;;;;460.33;331.30;;;;;;;-142.25;100.00;58004.16;4990752;28;20049;-62
2022/11/25 10:51:37;;;;;;;461.73;330.80;;;;;;;-142.25;100.00;58004.16;4988848;28;20057;-63
2022/11/25 10:54:14;;;;;;;459.70;335.53;;;;;;;-142.25;100.00;58004.16;4998550;28;20105;-63
2022/11/25 10:56:57;;;;;;;463.70;347.67;;;;;;;-142.25;100.00;58004.16;4982606;28;20070;-62